createdAt,value
2023-04-11T00:01:39.507Z,17.00
2023-04-11T00:04:08.010Z,15.00
2023-04-11T00:06:36.574Z,16.10
2023-04-11T00:09:05.073Z,15.20
2023-04-11T00:11:33.181Z,19.80
2023-04-11T00:14:01.246Z,16.10
2023-04-11T00:16:29.659Z,15.80
2023-04-11T00:18:57.921Z,15.00
2023-04-11T00:21:26.295Z,15.70
2023-04-11T00:23:55.484Z,15.50
2023-04-11T00:26:23.827Z,15.80
2023-04-11T00:28:51.957Z,15.50
2023-04-11T00:31:20.182Z,14.80
2023-04-11T00:33:48.303Z,15.20
2023-04-11T00:36:16.640Z,16.00
2023-04-11T00:38:46.507Z,16.10
2023-04-11T00:41:14.656Z,16.30
2023-04-11T00:43:43.488Z,15.20
2023-04-11T00:46:11.914Z,15.60
2023-04-11T00:48:40.294Z,15.30
2023-04-11T00:51:08.709Z,17.10
2023-04-11T00:53:37.838Z,16.90
2023-04-11T00:56:07.115Z,13.20
2023-04-11T00:58:37.812Z,14.70
2023-04-11T01:01:09.258Z,18.00
2023-04-11T01:03:39.802Z,14.60
2023-04-11T01:06:11.219Z,17.90
2023-04-11T01:08:42.601Z,16.40
2023-04-11T01:11:12.889Z,15.00
2023-04-11T01:13:41.968Z,14.90
2023-04-11T01:16:10.791Z,19.20
2023-04-11T01:18:39.126Z,16.80
2023-04-11T01:21:07.884Z,18.30
2023-04-11T01:23:36.125Z,14.70
2023-04-11T01:26:04.376Z,15.70
2023-04-11T01:28:32.580Z,21.50
2023-04-11T01:31:01.982Z,15.90
2023-04-11T01:33:30.626Z,15.80
2023-04-11T01:35:58.852Z,15.40
2023-04-11T01:38:27.036Z,19.40
2023-04-11T01:40:57.541Z,14.60
2023-04-11T01:43:25.737Z,14.30
2023-04-11T01:45:54.119Z,15.80
2023-04-11T01:48:22.862Z,17.10
2023-04-11T01:50:52.061Z,22.50
2023-04-11T01:53:20.113Z,19.70
2023-04-11T01:55:48.370Z,15.10
2023-04-11T01:58:16.513Z,18.10
2023-04-11T02:00:44.750Z,18.40
2023-04-11T02:03:13.135Z,19.00
2023-04-11T02:05:42.935Z,16.20
2023-04-11T02:08:11.432Z,16.20
2023-04-11T02:10:39.589Z,15.30
2023-04-11T02:13:07.807Z,15.00
2023-04-11T02:15:35.923Z,17.80
2023-04-11T02:18:04.305Z,15.10
2023-04-11T02:20:32.591Z,14.10
2023-04-11T02:23:04.564Z,14.90
2023-04-11T02:25:33.269Z,13.80
2023-04-11T02:28:01.387Z,13.00
2023-04-11T02:30:29.565Z,13.70
2023-04-11T02:32:57.643Z,13.50
2023-04-11T02:35:26.306Z,15.50
2023-04-11T02:37:54.640Z,17.50
2023-04-11T02:40:22.752Z,15.00
2023-04-11T02:42:50.878Z,16.10
2023-04-11T02:45:19.366Z,15.50
2023-04-11T02:47:47.503Z,14.10
2023-04-11T02:50:16.228Z,15.90
2023-04-11T02:52:49.518Z,16.40
2023-04-11T02:55:20.032Z,19.60
2023-04-11T02:57:48.102Z,16.20
2023-04-11T03:00:20.236Z,13.00
2023-04-11T03:02:57.545Z,14.20
2023-04-11T03:05:26.382Z,15.10
2023-04-11T03:07:55.056Z,18.80
2023-04-11T03:10:26.168Z,15.90
2023-04-11T03:12:54.952Z,19.30
2023-04-11T03:15:23.193Z,15.10
2023-04-11T03:17:51.486Z,21.90
2023-04-11T03:20:20.328Z,18.60
2023-04-11T03:22:54.048Z,16.40
2023-04-11T03:25:22.814Z,15.20
2023-04-11T03:27:52.143Z,18.40
2023-04-11T03:30:20.327Z,17.80
2023-04-11T03:32:49.251Z,17.20
2023-04-11T03:35:18.910Z,18.90
2023-04-11T03:37:48.237Z,20.00
2023-04-11T03:40:18.632Z,21.40
2023-04-11T03:42:51.119Z,22.00
2023-04-11T03:45:22.466Z,19.80
2023-04-11T03:47:51.464Z,21.00
2023-04-11T03:50:20.649Z,20.30
2023-04-11T03:52:50.163Z,19.50
2023-04-11T03:55:18.751Z,23.70
2023-04-11T03:57:47.034Z,18.70
2023-04-11T04:00:15.933Z,17.90
2023-04-11T04:02:49.467Z,18.70
2023-04-11T04:05:17.819Z,19.50
2023-04-11T04:07:45.957Z,23.20
2023-04-11T04:10:21.399Z,19.40
2023-04-11T04:12:53.424Z,21.70
2023-04-11T04:15:25.216Z,21.40
2023-04-11T04:17:54.083Z,21.50
2023-04-11T04:20:28.748Z,24.40
2023-04-11T04:23:00.289Z,25.10
2023-04-11T04:25:42.260Z,22.00
2023-04-11T04:28:11.583Z,22.50
2023-04-11T04:30:40.833Z,25.30
2023-04-11T04:33:12.489Z,26.40
2023-04-11T04:35:43.172Z,21.30
2023-04-11T04:38:18.135Z,19.60
2023-04-11T04:40:54.779Z,21.40
2023-04-11T04:43:24.639Z,24.40
2023-04-11T04:46:15.769Z,18.80
2023-04-11T04:48:48.022Z,20.10
2023-04-11T04:51:16.185Z,28.30
2023-04-11T04:53:44.369Z,30.30
2023-04-11T04:56:12.696Z,24.10
2023-04-11T04:58:45.451Z,29.30
2023-04-11T05:01:14.152Z,28.20
2023-04-11T05:13:47.797Z,22.90
2023-04-11T05:16:18.335Z,26.10
2023-04-11T05:18:47.022Z,29.20
2023-04-11T05:21:15.788Z,25.50
2023-04-11T05:23:45.598Z,27.40
2023-04-11T05:26:13.957Z,27.30
2023-04-11T05:28:42.553Z,27.70
2023-04-11T05:31:13.809Z,26.30
2023-04-11T05:33:43.274Z,26.90
2023-04-11T05:36:14.535Z,26.00
2023-04-11T05:38:44.420Z,29.60
2023-04-11T05:41:13.076Z,29.60
2023-04-11T05:43:41.145Z,25.20
2023-04-11T05:46:10.752Z,31.10
2023-04-11T05:48:39.576Z,27.80
2023-04-11T05:51:08.133Z,26.80
2023-04-11T05:53:36.342Z,32.00
2023-04-11T05:56:04.791Z,29.90
2023-04-11T05:58:34.258Z,30.00
2023-04-11T06:01:02.378Z,28.40
2023-04-11T06:03:30.743Z,29.80
2023-04-11T06:06:00.422Z,30.70
2023-04-11T06:08:28.801Z,25.40
2023-04-11T06:10:56.874Z,31.80
2023-04-11T06:13:26.110Z,27.10
2023-04-11T06:15:54.896Z,28.30
2023-04-11T06:18:23.007Z,27.10
2023-04-11T06:20:51.184Z,27.20
2023-04-11T06:23:19.450Z,37.80
2023-04-11T06:25:47.664Z,29.70
2023-04-11T06:28:15.840Z,29.90
2023-04-11T06:30:44.095Z,26.80
2023-04-11T06:33:12.466Z,28.30
2023-04-11T06:35:41.051Z,27.60
2023-04-11T06:38:09.425Z,25.00
2023-04-11T06:40:37.719Z,27.60
2023-04-11T06:43:06.013Z,24.70
2023-04-11T06:45:34.325Z,23.80
2023-04-11T06:48:02.425Z,28.20
2023-04-11T06:50:30.869Z,24.10
2023-04-11T06:52:59.753Z,23.70
2023-04-11T06:55:27.880Z,25.10
2023-04-11T06:57:56.023Z,31.20
2023-04-11T07:00:24.965Z,29.40
2023-04-11T07:02:53.301Z,25.50
2023-04-11T07:05:21.706Z,27.80
2023-04-11T07:07:50.239Z,29.60
2023-04-11T07:10:18.293Z,26.00
2023-04-11T07:12:46.393Z,30.60
2023-04-11T07:15:15.112Z,28.60
2023-04-11T07:17:43.492Z,28.30
2023-04-11T07:20:12.516Z,23.80
2023-04-11T07:22:43.486Z,26.80
2023-04-11T07:25:11.683Z,29.10
2023-04-11T07:27:43.876Z,25.90
2023-04-11T07:30:12.904Z,26.70
2023-04-11T07:32:40.994Z,29.80
2023-04-11T07:35:10.247Z,25.70
2023-04-11T07:37:38.404Z,26.00
2023-04-11T07:40:10.776Z,25.30
2023-04-11T07:42:39.382Z,26.80
2023-04-11T07:45:08.364Z,25.30
2023-04-11T07:47:36.490Z,25.70
2023-04-11T07:50:05.490Z,28.10
2023-04-11T07:52:33.891Z,28.10
2023-04-11T07:55:04.803Z,26.20
2023-04-11T07:57:33.236Z,23.80
2023-04-11T08:00:01.916Z,24.30
2023-04-11T08:02:41.229Z,25.60
2023-04-11T08:05:10.119Z,27.20
2023-04-11T08:07:38.503Z,23.40
2023-04-11T08:10:07.851Z,26.40
2023-04-11T08:12:36.050Z,27.30
2023-04-11T08:15:05.089Z,19.60
2023-04-11T08:17:38.253Z,23.60
2023-04-11T08:20:10.548Z,20.90
2023-04-11T08:22:39.776Z,23.20
2023-04-11T08:25:09.980Z,21.40
2023-04-11T08:27:39.160Z,27.30
2023-04-11T08:30:08.625Z,23.80
2023-04-11T08:32:37.447Z,23.40
2023-04-11T08:35:06.054Z,21.60
2023-04-11T08:37:34.844Z,23.90
2023-04-11T08:40:07.113Z,25.90
2023-04-11T08:42:35.833Z,22.60
2023-04-11T08:45:08.864Z,18.90
2023-04-11T08:47:37.512Z,18.90
2023-04-11T08:50:06.945Z,19.40
2023-04-11T08:52:38.004Z,21.30
2023-04-11T08:55:07.096Z,21.40
2023-04-11T08:57:38.214Z,16.20
2023-04-11T09:00:19.488Z,17.60
2023-04-11T09:03:01.061Z,20.80
2023-04-11T09:05:32.559Z,21.80
2023-04-11T09:08:03.820Z,14.00
2023-04-11T09:10:32.321Z,15.80
2023-04-11T09:13:02.393Z,16.70
2023-04-11T09:15:31.755Z,17.50
2023-04-11T09:18:01.061Z,13.30
2023-04-11T09:20:31.248Z,15.50
2023-04-11T09:22:59.422Z,16.30
2023-04-11T09:25:28.466Z,11.80
2023-04-11T09:28:10.484Z,12.80
2023-04-11T09:30:38.748Z,15.20
2023-04-11T09:33:22.856Z,11.30
2023-04-11T09:35:54.281Z,14.30
2023-04-11T09:38:30.978Z,18.20
2023-04-11T09:41:00.766Z,15.50
2023-04-11T09:43:51.881Z,11.00
2023-04-11T09:46:21.375Z,14.80
2023-04-11T09:48:51.292Z,15.90
2023-04-11T09:53:52.450Z,14.00
2023-04-11T09:56:20.575Z,13.70
2023-04-11T09:58:49.933Z,13.00
2023-04-11T10:01:20.087Z,10.10
2023-04-11T10:03:51.187Z,16.00
2023-04-11T10:06:31.864Z,13.50
2023-04-11T10:09:11.870Z,13.40
2023-04-11T10:11:44.715Z,12.10
2023-04-11T10:14:37.947Z,16.10
2023-04-11T10:17:14.615Z,13.80
2023-04-11T10:19:44.858Z,9.40
2023-04-11T10:22:41.894Z,10.40
2023-04-11T10:25:25.002Z,13.70
2023-04-11T10:28:02.083Z,13.40
2023-04-11T10:30:40.256Z,10.80
2023-04-11T10:33:38.164Z,13.10
2023-04-11T10:36:11.563Z,12.00
2023-04-11T10:38:49.206Z,12.70
2023-04-11T10:41:23.342Z,9.80
2023-04-11T10:43:52.380Z,9.20
2023-04-11T10:46:25.282Z,12.20
2023-04-11T10:49:04.672Z,19.10
2023-04-11T10:51:34.492Z,10.30
2023-04-11T10:54:03.093Z,11.10
2023-04-11T10:56:41.116Z,9.50
2023-04-11T10:59:31.397Z,11.20
2023-04-11T11:02:01.774Z,10.10
2023-04-11T11:04:32.365Z,12.40
2023-04-11T11:07:01.961Z,12.20
2023-04-11T11:09:31.338Z,11.60
2023-04-11T11:12:11.177Z,9.20
2023-04-11T11:14:42.174Z,8.10
2023-04-11T11:17:12.877Z,7.80
2023-04-11T11:19:48.642Z,12.10
2023-04-11T11:22:17.879Z,9.40
2023-04-11T11:24:45.980Z,8.50
2023-04-11T11:27:24.592Z,12.60
2023-04-11T11:29:53.534Z,13.50
2023-04-11T11:32:29.872Z,8.00
2023-04-11T11:34:58.952Z,9.50
2023-04-11T11:37:27.230Z,8.40
2023-04-11T11:39:55.703Z,10.60
2023-04-11T11:42:24.695Z,10.00
2023-04-11T11:44:52.964Z,9.90
2023-04-11T11:47:21.079Z,8.20
2023-04-11T11:49:54.623Z,8.60
2023-04-11T11:52:40.931Z,7.60
2023-04-11T11:55:18.412Z,9.80
2023-04-11T11:57:50.701Z,7.40
2023-04-11T12:00:27.323Z,10.90
2023-04-11T12:03:00.131Z,9.00
2023-04-11T12:05:35.022Z,7.50
2023-04-11T12:08:06.570Z,7.70
2023-04-11T12:10:42.766Z,8.80
2023-04-11T12:13:12.409Z,7.80
2023-04-11T12:15:43.502Z,9.50
2023-04-11T12:18:12.128Z,8.50
2023-04-11T12:20:40.734Z,15.00
2023-04-11T12:23:09.124Z,8.80
2023-04-11T12:25:37.591Z,5.10
2023-04-11T12:28:06.265Z,7.30
2023-04-11T12:30:34.405Z,10.50
2023-04-11T12:33:02.766Z,8.60
2023-04-11T12:35:31.342Z,8.40
2023-04-11T12:37:59.784Z,8.30
2023-04-11T12:40:29.833Z,8.10
2023-04-11T12:42:58.773Z,13.40
2023-04-11T12:45:27.285Z,7.80
2023-04-11T12:47:55.528Z,8.00
2023-04-11T12:50:24.583Z,8.70
2023-04-11T12:52:53.469Z,9.90
2023-04-11T12:55:22.492Z,9.10
2023-04-11T12:57:50.729Z,6.70
2023-04-11T13:00:19.549Z,9.00
2023-04-11T13:02:48.829Z,8.60
2023-04-11T13:05:17.882Z,7.40
2023-04-11T13:07:46.735Z,6.10
2023-04-11T13:10:16.297Z,5.80
2023-04-11T13:12:45.744Z,5.90
2023-04-11T13:15:16.857Z,7.50
2023-04-11T13:17:45.826Z,6.50
2023-04-11T13:20:14.701Z,6.60
2023-04-11T13:22:43.389Z,6.40
2023-04-11T13:25:12.472Z,6.70
2023-04-11T13:27:41.806Z,8.30
2023-04-11T13:30:11.256Z,8.60
2023-04-11T13:32:39.626Z,7.10
2023-04-11T13:35:08.694Z,5.40
2023-04-11T13:37:37.153Z,5.30
2023-04-11T13:40:11.194Z,6.70
2023-04-11T13:42:39.869Z,6.20
2023-04-11T13:45:08.821Z,5.50
2023-04-11T13:47:38.737Z,7.10
2023-04-11T13:50:08.840Z,5.30
2023-04-11T13:52:37.950Z,8.60
2023-04-11T13:55:06.570Z,7.30
2023-04-11T13:57:35.081Z,10.20
2023-04-11T14:00:13.651Z,8.20
2023-04-11T14:02:43.148Z,6.90
2023-04-11T14:05:11.700Z,9.10
2023-04-11T14:07:41.456Z,8.10
2023-04-11T14:10:10.760Z,6.40
2023-04-11T14:12:39.401Z,7.20
2023-04-11T14:15:08.142Z,6.10
2023-04-11T14:17:36.418Z,7.00
2023-04-11T14:20:06.953Z,11.20
2023-04-11T14:22:35.988Z,6.70
2023-04-11T14:25:05.593Z,11.00
2023-04-11T14:27:33.622Z,8.10
2023-04-11T14:30:02.167Z,9.10
2023-04-11T14:32:30.745Z,9.30
2023-04-11T14:35:02.023Z,9.40
2023-04-11T14:37:32.088Z,7.10
2023-04-11T14:40:01.296Z,9.10
2023-04-11T14:42:29.703Z,12.20
2023-04-11T14:44:57.838Z,9.10
2023-04-11T14:47:26.214Z,8.00
2023-04-11T14:49:56.836Z,9.10
2023-04-11T14:52:24.953Z,11.90
2023-04-11T14:54:53.435Z,10.80
2023-04-11T14:57:22.771Z,13.30
2023-04-11T14:59:50.940Z,8.70
2023-04-11T15:02:19.284Z,9.40
2023-04-11T15:04:47.668Z,8.70
2023-04-11T15:07:16.445Z,7.40
2023-04-11T15:09:45.028Z,6.40
2023-04-11T15:12:13.058Z,6.50
2023-04-11T15:14:41.382Z,10.40
2023-04-11T15:17:09.482Z,8.80
2023-04-11T15:19:37.509Z,8.80
2023-04-11T15:22:05.755Z,7.10
2023-04-11T15:24:34.084Z,8.10
2023-04-11T15:27:02.170Z,9.30
2023-04-11T15:29:30.320Z,6.60
2023-04-11T15:32:02.736Z,8.90
2023-04-11T15:34:30.972Z,8.10
2023-04-11T15:36:59.934Z,8.10
2023-04-11T15:39:28.344Z,7.60
2023-04-11T15:41:56.484Z,9.60
2023-04-11T15:44:24.882Z,8.00
2023-04-11T15:46:53.088Z,10.80
2023-04-11T15:49:21.367Z,8.10
2023-04-11T15:51:49.762Z,9.50
2023-04-11T15:54:18.074Z,8.70
2023-04-11T15:56:46.486Z,8.50
2023-04-11T15:59:16.260Z,9.70
2023-04-11T16:01:44.508Z,10.20
2023-04-11T16:04:12.957Z,8.10
2023-04-11T16:06:41.321Z,8.80
2023-04-11T16:09:09.432Z,6.80
2023-04-11T16:11:39.963Z,5.30
2023-04-11T16:14:08.439Z,6.00
2023-04-11T16:16:36.495Z,8.90
2023-04-11T16:19:04.617Z,6.50
2023-04-11T16:21:32.882Z,7.10
2023-04-11T16:24:01.313Z,5.50
2023-04-11T16:26:29.429Z,6.30
2023-04-11T16:28:57.686Z,8.40
2023-04-11T16:31:26.099Z,6.60
2023-04-11T16:33:55.400Z,8.90
2023-04-11T16:36:24.368Z,7.40
2023-04-11T16:38:53.220Z,10.90
2023-04-11T16:41:21.858Z,6.60
2023-04-11T16:43:50.107Z,8.60
2023-04-11T16:46:18.691Z,7.00
2023-04-11T16:48:46.834Z,9.60
2023-04-11T16:51:18.698Z,10.00
2023-04-11T16:53:47.491Z,10.80
2023-04-11T16:56:18.125Z,11.30
2023-04-11T16:58:47.003Z,10.80
2023-04-11T17:01:15.320Z,10.50
2023-04-11T17:03:43.977Z,10.70
2023-04-11T17:06:15.078Z,11.00
2023-04-11T17:08:44.650Z,9.50
2023-04-11T17:11:13.723Z,12.00
2023-04-11T17:13:45.584Z,10.80
2023-04-11T17:16:13.947Z,8.70
2023-04-11T17:18:42.656Z,8.50
2023-04-11T17:21:11.571Z,11.60
2023-04-11T17:23:43.502Z,13.10
2023-04-11T17:26:14.439Z,20.00
2023-04-11T17:28:42.792Z,10.80
2023-04-11T17:31:15.766Z,12.50
2023-04-11T17:33:44.989Z,11.80
2023-04-11T17:36:13.990Z,9.90
2023-04-11T17:38:43.787Z,12.20
2023-04-11T17:41:15.461Z,10.70
2023-04-11T17:43:44.890Z,14.40
2023-04-11T17:46:13.884Z,13.90
2023-04-11T17:48:42.402Z,12.40
2023-04-11T17:51:11.120Z,14.00
2023-04-11T17:53:39.746Z,12.50
2023-04-11T17:56:08.350Z,16.80
2023-04-11T17:58:37.364Z,29.00
2023-04-11T18:01:09.150Z,20.00
2023-04-11T18:03:38.925Z,21.90
2023-04-11T18:06:08.216Z,21.20
2023-04-11T18:11:12.277Z,12.60
2023-04-11T18:13:42.885Z,13.20
2023-04-11T18:16:11.466Z,12.90
2023-04-11T18:18:40.294Z,12.80
2023-04-11T18:21:08.717Z,12.40
2023-04-11T18:23:38.259Z,10.80
2023-04-11T18:26:07.018Z,12.40
2023-04-11T18:28:35.137Z,12.40
2023-04-11T18:31:04.564Z,13.30
2023-04-11T18:33:42.111Z,10.30
2023-04-11T18:36:12.923Z,12.00
2023-04-11T18:38:41.528Z,12.10
2023-04-11T18:41:10.196Z,13.80
2023-04-11T18:43:39.064Z,11.40
2023-04-11T18:46:08.303Z,15.10
2023-04-11T18:48:36.979Z,11.90
2023-04-11T18:51:05.948Z,13.90
2023-04-11T18:53:37.053Z,12.10
2023-04-11T18:56:08.143Z,10.90
2023-04-11T18:58:39.954Z,12.70
2023-04-11T19:01:15.658Z,11.20
2023-04-11T19:03:46.477Z,10.50
2023-04-11T19:06:15.377Z,11.60
2023-04-11T19:08:43.525Z,9.60
2023-04-11T19:11:12.805Z,9.50
2023-04-11T19:13:41.239Z,7.70
2023-04-11T19:16:09.508Z,8.90
2023-04-11T19:18:38.722Z,11.80
2023-04-11T19:21:09.260Z,9.00
2023-04-11T19:23:37.669Z,7.60
2023-04-11T19:26:06.375Z,8.10
2023-04-11T19:28:35.885Z,7.50
2023-04-11T19:31:04.409Z,9.30
2023-04-11T19:33:33.269Z,9.40
2023-04-11T19:36:02.355Z,6.90
2023-04-11T19:38:30.716Z,7.70
2023-04-11T19:41:14.006Z,7.20
2023-04-11T19:43:43.417Z,5.80
2023-04-11T19:46:12.596Z,6.70
2023-04-11T19:48:41.801Z,6.40
2023-04-11T19:51:11.054Z,8.40
2023-04-11T19:53:40.150Z,6.00
2023-04-11T19:56:10.912Z,7.20
2023-04-11T19:58:39.961Z,5.30
2023-04-11T20:01:09.829Z,9.20
2023-04-11T20:03:39.412Z,6.20
2023-04-11T20:06:07.927Z,7.20
2023-04-11T20:08:38.148Z,5.80
2023-04-11T20:11:06.729Z,7.30
2023-04-11T20:13:36.041Z,8.00
2023-04-11T20:16:08.401Z,7.90
2023-04-11T20:18:36.519Z,7.00
2023-04-11T20:21:07.721Z,7.80
2023-04-11T20:23:37.290Z,7.60
2023-04-11T20:26:05.535Z,7.10
2023-04-11T20:28:33.645Z,6.10
2023-04-11T20:31:04.628Z,6.10
2023-04-11T20:33:33.037Z,5.50
2023-04-11T20:36:03.339Z,4.90
2023-04-11T20:38:32.100Z,5.00
2023-04-11T20:41:03.818Z,5.00
2023-04-11T20:43:32.157Z,4.60
2023-04-11T20:46:00.416Z,4.40
2023-04-11T20:48:30.195Z,6.00
2023-04-11T20:51:02.405Z,7.20
2023-04-11T20:55:58.758Z,6.40
2023-04-11T20:58:27.041Z,4.30
2023-04-11T21:00:55.401Z,4.50
2023-04-11T21:03:24.088Z,5.10
2023-04-11T21:05:52.453Z,7.10
2023-04-11T21:08:20.788Z,5.50
2023-04-11T21:10:48.916Z,4.20
2023-04-11T21:13:17.117Z,6.80
2023-04-11T21:15:46.086Z,6.80
2023-04-11T21:18:14.371Z,5.70
2023-04-11T21:20:42.622Z,6.30
2023-04-11T21:23:11.091Z,5.40
2023-04-11T21:25:39.534Z,6.50
2023-04-11T21:28:07.697Z,5.10
2023-04-11T21:30:36.076Z,5.50
2023-04-11T21:33:04.278Z,6.80
2023-04-11T21:35:32.483Z,6.60
2023-04-11T21:38:00.971Z,6.40
2023-04-11T21:40:29.543Z,8.10
2023-04-11T21:42:57.902Z,6.70
2023-04-11T21:45:26.206Z,8.20
2023-04-11T21:47:54.574Z,6.20
2023-04-11T21:50:22.976Z,5.90
2023-04-11T21:52:52.736Z,7.80
2023-04-11T21:55:20.834Z,6.80
2023-04-11T21:57:48.939Z,9.60
2023-04-11T22:00:18.296Z,7.90
2023-04-11T22:02:46.503Z,7.30
2023-04-11T22:05:17.430Z,8.50
2023-04-11T22:07:48.769Z,9.30
2023-04-11T22:10:23.816Z,10.30
2023-04-11T22:12:54.462Z,7.70
2023-04-11T22:15:24.570Z,8.50
2023-04-11T22:17:54.472Z,8.40
2023-04-11T22:20:22.922Z,8.40
2023-04-11T22:22:51.241Z,8.10
2023-04-11T22:25:22.288Z,7.80
2023-04-11T22:27:54.712Z,10.20
2023-04-11T22:30:24.480Z,10.50
2023-04-11T22:32:54.428Z,9.70
2023-04-11T22:35:25.984Z,10.90
2023-04-11T22:37:57.194Z,10.90
2023-04-11T22:40:25.511Z,10.30
2023-04-11T22:42:54.142Z,10.80
2023-04-11T22:45:23.395Z,12.20
2023-04-11T23:13:30.680Z,11.30
2023-04-11T23:16:02.512Z,11.10
2023-04-11T23:18:30.681Z,9.80
2023-04-11T23:20:58.882Z,10.00
2023-04-11T23:23:27.902Z,11.10
2023-04-11T23:25:56.483Z,10.00
2023-04-11T23:28:25.446Z,12.50
2023-04-11T23:31:50.506Z,9.90
2023-04-11T23:37:05.934Z,9.20
2023-04-11T23:39:34.085Z,9.50
2023-04-11T23:42:02.825Z,9.40
2023-04-11T23:44:31.406Z,8.50
2023-04-11T23:47:00.217Z,9.30
2023-04-11T23:49:28.538Z,8.80
2023-04-11T23:51:56.973Z,10.00
2023-04-11T23:54:30.058Z,8.10
2023-04-11T23:56:58.864Z,8.90
2023-04-11T23:59:27.175Z,9.50
